Portada
METAR-TAF:

METAR-TAF

Aeroports :

Colombo, Sri Lanka

latitud: 07-10N, longitud: 079-53E, altitud: 8 m

Observació

L'informe es va fer fa 28 minuts, a les 03:10 UTC
Vent 12 kt del Nord-Est
Temperatura 27°C
Humitat 79%
Pressió 1013 hPa
Visibilitat 10 km o més
Escasses núvols a una alçada de 1800 ft

METAR: VCBI 250310Z 04012KT 9999 FEW018 27/23 Q1013 NOSIG

Hora: 09:08 (03:38 UTC)

Pronòstic

L'informe es va fer fa 4 hores i 38 minuts, a les 23:00 UTC
Pronòstic vàlid del 25 a les 00 UTC al 26 a les 06 UTC
Vent 12 kt del Nord
Visibilitat 10 km o més
Escasses núvols a una alçada de 1800 ft
Temporalment
l' 25 a les 00 UTC al 25 a les 02 UTC
Visibilitat: 7000 m

TAF: VCBI 242300Z 2500/2606 01012KT 9999 FEW018 TX35/2507Z TN23/2600Z TEMPO 2500/2502 7000

Observacions i pronòstics meteorològics de més de 4000 aeroports (METAR i TAF).

Les estacions disponibles són els punts grocs i vermells al mapa.

Posi el ratolí al punt desitjat per veure el nom de l'estació.

Feu clic per veure les observacions i els pronòstics meteorològics.

Per canviar el mapa: feu clic els botons verds amb una creu de color negre per apropar; al botó verd amb un guió per allunyar la imatge; o en les fletxes verdes per a mapes adjacents.


METAR-TAF: